Time,TemperatureF,DewpointF,PressureIn,WindDirection,WindDirectionDegrees,WindSpeedMPH,WindSpeedGustMPH,Humidity,HourlyPrecipIn,Conditions,Clouds,dailyrainin,SolarRadiationWatts/m^2,SoftwareType,DateUTC
2013-03-08 00:01:00,48.0,46.1,29.88,WNW,301,0.0,0.0,93,0.00,,,0.00,0.00,VWS V14.01,2013-03-08 08:01:00,
2013-03-08 00:06:00,47.9,46.0,29.88,NNW,341,0.0,3.0,93,0.00,,,0.00,0.00,VWS V14.01,2013-03-08 08:06:00,
2013-03-08 00:11:00,47.9,46.0,29.88,NW,324,0.0,2.0,93,0.00,,,0.00,0.00,VWS V14.01,2013-03-08 08:11:00,
2013-03-08 00:16:00,47.9,46.3,29.87,NW,326,0.0,2.0,94,0.01,,,0.01,0.00,VWS V14.01,2013-03-08 08:16:00,
2013-03-08 00:21:00,48.0,46.4,29.87,ENE,61,0.0,2.0,94,0.01,,,0.01,0.00,VWS V14.01,2013-03-08 08:21:00,
2013-03-08 00:26:00,47.9,46.0,29.87,North,358,0.0,4.0,93,0.02,,,0.02,0.00,VWS V14.01,2013-03-08 08:26:00,
2013-03-08 00:31:00,47.7,45.8,29.87,NNE,15,0.0,1.0,93,0.02,,,0.02,0.00,VWS V14.01,2013-03-08 08:31:00,
2013-03-08 00:36:00,47.4,45.5,29.87,ENE,77,0.0,3.0,93,0.03,,,0.03,0.00,VWS V14.01,2013-03-08 08:36:00,
2013-03-08 00:41:00,47.3,45.4,29.87,NNW,339,0.0,2.0,93,0.03,,,0.03,0.00,VWS V14.01,2013-03-08 08:41:00,
2013-03-08 00:46:00,47.3,45.7,29.87,NE,55,0.0,2.0,94,0.03,,,0.03,0.00,VWS V14.01,2013-03-08 08:46:00,
2013-03-08 00:51:00,47.3,45.7,29.87,ENE,65,0.0,0.0,94,0.03,,,0.03,0.00,VWS V14.01,2013-03-08 08:51:00,
2013-03-08 00:56:00,47.4,45.8,29.87,NE,44,0.0,1.0,94,0.03,,,0.03,0.00,VWS V14.01,2013-03-08 08:56:00,
2013-03-08 01:01:00,47.3,45.7,29.87,North,9,0.0,2.0,94,0.03,,,0.03,0.00,VWS V14.01,2013-03-08 09:01:00,
2013-03-08 01:06:00,47.4,45.8,29.87,SSE,167,0.0,3.0,94,0.03,,,0.03,0.00,VWS V14.01,2013-03-08 09:06:00,
2013-03-08 01:11:00,47.4,45.8,29.87,NNW,339,1.0,1.0,94,0.03,,,0.03,0.00,VWS V14.01,2013-03-08 09:11:00,
2013-03-08 01:16:00,47.4,45.8,29.87,ENE,69,0.0,4.0,94,0.03,,,0.03,0.00,VWS V14.01,2013-03-08 09:16:00,
2013-03-08 01:21:00,47.4,45.8,29.86,ENE,70,0.0,1.0,94,0.02,,,0.03,0.00,VWS V14.01,2013-03-08 09:21:00,
2013-03-08 01:26:00,47.3,45.7,29.86,ENE,69,0.0,3.0,94,0.02,,,0.03,0.00,VWS V14.01,2013-03-08 09:26:00,
2013-03-08 01:31:00,47.3,45.7,29.86,ENE,69,0.0,0.0,94,0.01,,,0.03,0.00,VWS V14.01,2013-03-08 09:31:00,
2013-03-08 01:36:00,47.3,45.7,29.86,ENE,69,0.0,0.0,94,0.01,,,0.03,0.00,VWS V14.01,2013-03-08 09:36:00,
2013-03-08 01:41:00,47.3,45.7,29.86,ENE,70,0.0,0.0,94,0.00,,,0.03,0.00,VWS V14.01,2013-03-08 09:41:00,
2013-03-08 01:46:00,47.3,45.7,29.86,ENE,69,0.0,0.0,94,0.00,,,0.03,0.00,VWS V14.01,2013-03-08 09:46:00,
2013-03-08 01:51:00,47.3,45.7,29.86,ENE,69,0.0,0.0,94,0.00,,,0.03,0.00,VWS V14.01,2013-03-08 09:51:00,
2013-03-08 01:56:00,47.3,45.7,29.86,ENE,70,0.0,3.0,94,0.00,,,0.03,0.00,VWS V14.01,2013-03-08 09:56:00,
2013-03-08 02:01:00,47.2,45.6,29.86,ENE,70,0.0,0.0,94,0.00,,,0.03,0.00,VWS V14.01,2013-03-08 10:01:00,
2013-03-08 02:06:00,47.2,45.6,29.86,ENE,70,0.0,0.0,94,0.00,,,0.03,0.00,VWS V14.01,2013-03-08 10:06:00,
2013-03-08 02:11:00,47.1,45.5,29.86,ENE,70,0.0,0.0,94,0.00,,,0.03,0.00,VWS V14.01,2013-03-08 10:11:00,
2013-03-08 02:16:00,47.2,45.6,29.85,ENE,70,0.0,1.0,94,0.00,,,0.03,0.00,VWS V14.01,2013-03-08 10:16:00,
2013-03-08 02:21:00,47.2,45.6,29.86,ENE,70,0.0,0.0,94,0.00,,,0.03,0.00,VWS V14.01,2013-03-08 10:21:00,
2013-03-08 02:26:00,47.2,45.6,29.86,ENE,70,0.0,1.0,94,0.00,,,0.03,0.00,VWS V14.01,2013-03-08 10:26:00,
2013-03-08 02:31:00,47.2,45.6,29.85,ENE,70,0.0,1.0,94,0.00,,,0.03,0.00,VWS V14.01,2013-03-08 10:31:00,
2013-03-08 02:36:00,47.2,45.6,29.85,ENE,70,0.0,1.0,94,0.00,,,0.03,0.00,VWS V14.01,2013-03-08 10:36:00,
2013-03-08 02:41:00,47.1,45.2,29.85,ENE,70,0.0,0.0,93,0.00,,,0.03,0.00,VWS V14.01,2013-03-08 10:41:00,
2013-03-08 02:46:00,47.0,45.1,29.85,ENE,70,0.0,1.0,93,0.00,,,0.03,0.00,VWS V14.01,2013-03-08 10:46:00,
2013-03-08 02:51:00,46.8,44.9,29.85,ENE,70,0.0,1.0,93,0.00,,,0.03,0.00,VWS V14.01,2013-03-08 10:51:00,
2013-03-08 02:56:00,46.7,44.8,29.85,ENE,70,0.0,1.0,93,0.00,,,0.03,0.00,VWS V14.01,2013-03-08 10:56:00,
2013-03-08 03:01:00,46.7,44.8,29.85,ENE,70,0.0,1.0,93,0.00,,,0.03,0.00,VWS V14.01,2013-03-08 11:01:00,
2013-03-08 03:06:00,46.6,44.7,29.85,ENE,70,0.0,1.0,93,0.00,,,0.03,0.00,VWS V14.01,2013-03-08 11:06:00,
2013-03-08 03:11:00,46.6,44.7,29.85,ENE,70,0.0,1.0,93,0.00,,,0.03,0.00,VWS V14.01,2013-03-08 11:11:00,
2013-03-08 03:16:00,46.6,44.7,29.85,ENE,70,0.0,1.0,93,0.00,,,0.03,0.00,VWS V14.01,2013-03-08 11:16:00,
2013-03-08 03:21:00,46.6,44.7,29.85,ENE,70,0.0,0.0,93,0.00,,,0.03,0.00,VWS V14.01,2013-03-08 11:21:00,
2013-03-08 03:26:00,46.6,44.7,29.85,ENE,70,0.0,2.0,93,0.00,,,0.03,0.00,VWS V14.01,2013-03-08 11:26:00,
2013-03-08 03:31:00,46.6,44.7,29.85,ENE,70,0.0,0.0,93,0.00,,,0.03,0.00,VWS V14.01,2013-03-08 11:31:00,
2013-03-08 03:36:00,46.6,44.7,29.85,ENE,70,0.0,1.0,93,0.00,,,0.03,0.00,VWS V14.01,2013-03-08 11:36:00,
2013-03-08 03:41:00,46.6,44.7,29.85,ENE,70,0.0,0.0,93,0.00,,,0.03,0.00,VWS V14.01,2013-03-08 11:41:00,
2013-03-08 03:46:00,46.6,44.7,29.85,ENE,70,0.0,1.0,93,0.00,,,0.03,0.00,VWS V14.01,2013-03-08 11:46:00,
2013-03-08 03:52:00,46.6,44.7,29.85,ENE,70,0.0,1.0,93,0.00,,,0.03,0.00,VWS V14.01,2013-03-08 11:52:00,
2013-03-08 03:57:00,46.6,44.7,29.85,ENE,70,0.0,1.0,93,0.00,,,0.03,0.00,VWS V14.01,2013-03-08 11:57:00,
2013-03-08 04:02:00,46.7,44.8,29.85,ENE,70,0.0,0.0,93,0.00,,,0.03,0.00,VWS V14.01,2013-03-08 12:02:00,
2013-03-08 04:07:00,46.6,44.7,29.84,ENE,70,0.0,0.0,93,0.00,,,0.03,0.00,VWS V14.01,2013-03-08 12:07:00,
2013-03-08 04:12:00,46.6,44.7,29.84,ENE,70,0.0,0.0,93,0.00,,,0.03,0.00,VWS V14.01,2013-03-08 12:12:00,
2013-03-08 04:17:00,46.6,44.7,29.84,ENE,70,0.0,1.0,93,0.00,,,0.03,0.00,VWS V14.01,2013-03-08 12:17:00,
2013-03-08 04:22:00,46.5,44.3,29.84,ENE,70,0.0,0.0,92,0.00,,,0.03,0.00,VWS V14.01,2013-03-08 12:22:00,
2013-03-08 04:27:00,46.6,44.4,29.84,ENE,70,0.0,1.0,92,0.00,,,0.03,0.00,VWS V14.01,2013-03-08 12:27:00,
2013-03-08 04:32:00,46.6,44.4,29.84,ENE,70,0.0,1.0,92,0.00,,,0.03,0.00,VWS V14.01,2013-03-08 12:32:00,
2013-03-08 04:37:00,46.6,44.7,29.85,ENE,70,1.0,1.0,93,0.00,,,0.03,0.00,VWS V14.01,2013-03-08 12:37:00,
2013-03-08 04:42:00,46.6,44.7,29.85,ENE,70,0.0,0.0,93,0.00,,,0.03,0.00,VWS V14.01,2013-03-08 12:42:00,
2013-03-08 04:47:00,46.6,44.4,29.85,ENE,70,1.0,2.0,92,0.00,,,0.03,0.00,VWS V14.01,2013-03-08 12:47:00,
2013-03-08 04:52:00,46.7,44.5,29.85,ENE,70,0.0,0.0,92,0.00,,,0.03,0.00,VWS V14.01,2013-03-08 12:52:00,
2013-03-08 04:57:00,46.7,44.5,29.86,ENE,70,0.0,0.0,92,0.00,,,0.03,0.00,VWS V14.01,2013-03-08 12:57:00,
2013-03-08 05:02:00,46.7,44.5,29.86,ENE,70,0.0,0.0,92,0.00,,,0.03,0.00,VWS V14.01,2013-03-08 13:02:00,
2013-03-08 05:07:00,46.7,44.8,29.86,ENE,70,0.0,0.0,93,0.00,,,0.03,0.00,VWS V14.01,2013-03-08 13:07:00,
2013-03-08 05:12:00,46.8,44.9,29.86,ENE,70,0.0,1.0,93,0.00,,,0.03,0.00,VWS V14.01,2013-03-08 13:12:00,
2013-03-08 05:17:00,46.7,44.8,29.86,ENE,70,0.0,1.0,93,0.00,,,0.03,0.00,VWS V14.01,2013-03-08 13:17:00,
2013-03-08 05:22:00,46.7,44.8,29.86,ENE,70,0.0,0.0,93,0.00,,,0.03,0.00,VWS V14.01,2013-03-08 13:22:00,
2013-03-08 05:27:00,46.7,44.8,29.86,ENE,70,0.0,0.0,93,0.00,,,0.03,0.00,VWS V14.01,2013-03-08 13:27:00,
2013-03-08 05:32:00,46.7,44.5,29.86,ENE,70,0.0,0.0,92,0.00,,,0.03,0.00,VWS V14.01,2013-03-08 13:32:00,
2013-03-08 05:37:00,46.6,44.4,29.87,ENE,70,0.0,0.0,92,0.00,,,0.03,0.00,VWS V14.01,2013-03-08 13:37:00,
2013-03-08 05:42:00,46.6,44.4,29.87,ENE,70,0.0,0.0,92,0.00,,,0.03,0.00,VWS V14.01,2013-03-08 13:42:00,
2013-03-08 05:47:00,46.6,44.7,29.87,ENE,70,0.0,0.0,93,0.00,,,0.03,0.00,VWS V14.01,2013-03-08 13:47:00,
2013-03-08 05:52:00,46.7,44.8,29.87,ENE,70,0.0,0.0,93,0.00,,,0.03,0.00,VWS V14.01,2013-03-08 13:52:00,
2013-03-08 05:57:00,46.7,44.8,29.88,ENE,70,1.0,2.0,93,0.00,,,0.03,0.00,VWS V14.01,2013-03-08 13:57:00,
2013-03-08 06:02:00,46.8,44.9,29.88,ENE,70,0.0,2.0,93,0.00,,,0.03,0.00,VWS V14.01,2013-03-08 14:02:00,
2013-03-08 06:07:00,46.9,45.0,29.88,ENE,70,1.0,2.0,93,0.00,,,0.03,0.00,VWS V14.01,2013-03-08 14:07:00,
2013-03-08 06:12:00,47.0,45.1,29.88,East,94,0.0,3.0,93,0.00,,,0.03,0.00,VWS V14.01,2013-03-08 14:12:00,
2013-03-08 06:17:00,47.0,45.1,29.88,East,94,0.0,3.0,93,0.00,,,0.03,0.00,VWS V14.01,2013-03-08 14:17:00,
2013-03-08 06:22:00,47.1,45.2,29.88,East,94,0.0,0.0,93,0.00,,,0.03,0.00,VWS V14.01,2013-03-08 14:22:00,
2013-03-08 06:27:00,47.0,45.1,29.88,East,94,0.0,0.0,93,0.00,,,0.03,0.00,VWS V14.01,2013-03-08 14:27:00,
2013-03-08 06:32:00,47.0,45.1,29.88,East,94,0.0,0.0,93,0.00,,,0.03,0.00,VWS V14.01,2013-03-08 14:32:00,
2013-03-08 06:37:00,47.1,45.2,29.88,East,94,0.0,1.0,93,0.00,,,0.03,0.00,VWS V14.01,2013-03-08 14:37:00,
2013-03-08 06:42:00,47.0,45.1,29.88,East,94,0.0,0.0,93,0.00,,,0.03,5.00,VWS V14.01,2013-03-08 14:42:00,
2013-03-08 06:47:00,47.0,45.1,29.88,East,94,0.0,0.0,93,0.00,,,0.03,9.00,VWS V14.01,2013-03-08 14:47:00,
2013-03-08 06:52:00,47.0,45.1,29.88,East,94,0.0,0.0,93,0.00,,,0.03,11.00,VWS V14.01,2013-03-08 14:52:00,
2013-03-08 06:57:00,46.9,45.0,29.88,East,94,0.0,0.0,93,0.00,,,0.03,14.00,VWS V14.01,2013-03-08 14:57:00,
2013-03-08 07:02:00,46.8,44.9,29.89,East,94,0.0,0.0,93,0.00,,,0.03,18.00,VWS V14.01,2013-03-08 15:02:00,
2013-03-08 07:07:00,46.9,45.0,29.88,East,94,0.0,0.0,93,0.00,,,0.03,21.00,VWS V14.01,2013-03-08 15:07:00,
2013-03-08 07:12:00,46.9,45.0,29.89,East,94,0.0,0.0,93,0.00,,,0.03,26.00,VWS V14.01,2013-03-08 15:12:00,
2013-03-08 07:17:00,46.9,45.0,29.89,East,94,0.0,1.0,93,0.00,,,0.03,33.00,VWS V14.01,2013-03-08 15:17:00,
2013-03-08 07:22:00,47.0,45.1,29.89,East,94,0.0,0.0,93,0.00,,,0.03,49.00,VWS V14.01,2013-03-08 15:22:00,
2013-03-08 07:27:00,47.1,45.5,29.89,East,94,0.0,0.0,94,0.00,,,0.03,60.00,VWS V14.01,2013-03-08 15:27:00,
2013-03-08 07:33:00,47.2,45.6,29.89,East,94,0.0,0.0,94,0.00,,,0.03,79.00,VWS V14.01,2013-03-08 15:33:00,
2013-03-08 07:38:00,47.4,45.8,29.89,East,94,0.0,1.0,94,0.00,,,0.03,95.00,VWS V14.01,2013-03-08 15:38:00,
2013-03-08 07:43:00,47.6,45.7,29.90,East,94,0.0,1.0,93,0.00,,,0.03,118.00,VWS V14.01,2013-03-08 15:43:00,
2013-03-08 07:48:00,47.9,46.3,29.90,East,94,0.0,1.0,94,0.00,,,0.03,130.00,VWS V14.01,2013-03-08 15:48:00,
2013-03-08 07:53:00,48.3,46.7,29.90,East,94,0.0,0.0,94,0.00,,,0.03,102.00,VWS V14.01,2013-03-08 15:53:00,
2013-03-08 07:58:00,48.4,46.5,29.90,East,94,0.0,0.0,93,0.00,,,0.03,81.00,VWS V14.01,2013-03-08 15:58:00,
2013-03-08 08:03:00,48.6,46.7,29.91,East,94,0.0,1.0,93,0.00,,,0.03,72.00,VWS V14.01,2013-03-08 16:03:00,
2013-03-08 08:08:00,48.7,46.8,29.91,East,94,0.0,1.0,93,0.00,,,0.03,74.00,VWS V14.01,2013-03-08 16:08:00,
2013-03-08 08:13:00,49.0,46.8,29.91,SSW,209,1.0,1.0,92,0.00,,,0.03,100.00,VWS V14.01,2013-03-08 16:13:00,
2013-03-08 08:18:00,49.1,46.9,29.91,SW,231,0.0,1.0,92,0.00,,,0.03,118.00,VWS V14.01,2013-03-08 16:18:00,
2013-03-08 08:23:00,49.2,47.0,29.92,SW,231,1.0,1.0,92,0.00,,,0.03,100.00,VWS V14.01,2013-03-08 16:23:00,
2013-03-08 08:28:00,49.2,46.7,29.92,SW,229,0.0,2.0,91,0.00,,,0.03,116.00,VWS V14.01,2013-03-08 16:28:00,
2013-03-08 08:33:00,49.4,47.2,29.92,West,264,0.0,3.0,92,0.00,,,0.03,171.00,VWS V14.01,2013-03-08 16:33:00,
2013-03-08 08:38:00,49.6,47.1,29.92,West,273,2.0,3.0,91,0.00,,,0.03,204.00,VWS V14.01,2013-03-08 16:38:00,
2013-03-08 08:43:00,49.8,47.3,29.92,West,277,0.0,3.0,91,0.00,,,0.03,209.00,VWS V14.01,2013-03-08 16:43:00,
2013-03-08 08:48:00,50.0,47.5,29.92,WSW,245,3.0,4.0,91,0.00,,,0.03,225.00,VWS V14.01,2013-03-08 16:48:00,
2013-03-08 08:53:00,50.2,47.7,29.92,West,268,2.0,4.0,91,0.00,,,0.03,253.00,VWS V14.01,2013-03-08 16:53:00,
2013-03-08 08:58:00,50.3,47.5,29.92,West,277,3.0,5.0,90,0.00,,,0.03,272.00,VWS V14.01,2013-03-08 16:58:00,
2013-03-08 09:03:00,50.5,47.7,29.93,West,278,1.0,5.0,90,0.00,,,0.03,237.00,VWS V14.01,2013-03-08 17:03:00,
2013-03-08 09:08:00,50.9,48.1,29.93,WSW,248,4.0,7.0,90,0.00,,,0.03,197.00,VWS V14.01,2013-03-08 17:08:00,
2013-03-08 09:13:00,51.0,47.9,29.93,WNW,301,7.0,7.0,89,0.00,,,0.03,209.00,VWS V14.01,2013-03-08 17:13:00,
2013-03-08 09:18:00,50.9,47.8,29.94,WNW,287,5.0,9.0,89,0.00,,,0.03,132.00,VWS V14.01,2013-03-08 17:18:00,
2013-03-08 09:23:00,50.9,47.8,29.94,WNW,294,1.0,10.0,89,0.00,,,0.03,202.00,VWS V14.01,2013-03-08 17:23:00,
2013-03-08 09:28:00,50.9,47.8,29.94,NW,304,4.0,10.0,89,0.00,,,0.03,248.00,VWS V14.01,2013-03-08 17:28:00,
2013-03-08 09:33:00,51.0,47.9,29.94,NW,306,0.0,7.0,89,0.00,,,0.03,211.00,VWS V14.01,2013-03-08 17:33:00,
2013-03-08 09:38:00,51.2,48.1,29.94,NW,323,0.0,7.0,89,0.00,,,0.03,267.00,VWS V14.01,2013-03-08 17:38:00,
2013-03-08 09:43:00,51.2,47.8,29.94,WNW,291,4.0,8.0,88,0.00,,,0.03,383.00,VWS V14.01,2013-03-08 17:43:00,
2013-03-08 09:48:00,51.3,47.9,29.95,WNW,301,4.0,8.0,88,0.00,,,0.03,283.00,VWS V14.01,2013-03-08 17:48:00,
2013-03-08 09:53:00,51.4,48.0,29.95,WNW,288,2.0,6.0,88,0.00,,,0.03,353.00,VWS V14.01,2013-03-08 17:53:00,
2013-03-08 09:58:00,51.7,48.3,29.95,West,277,6.0,7.0,88,0.00,,,0.03,336.00,VWS V14.01,2013-03-08 17:58:00,
2013-03-08 10:03:00,51.8,48.1,29.95,NW,310,3.0,7.0,87,0.00,,,0.03,443.00,VWS V14.01,2013-03-08 18:03:00,
2013-03-08 10:08:00,52.0,48.0,29.95,NW,312,5.0,7.0,86,0.00,,,0.03,503.00,VWS V14.01,2013-03-08 18:08:00,
2013-03-08 10:13:00,52.2,48.2,29.95,NNW,333,2.0,6.0,86,0.00,,,0.03,251.00,VWS V14.01,2013-03-08 18:13:00,
2013-03-08 10:18:00,52.1,47.7,29.95,NNW,333,2.0,8.0,85,0.00,,,0.03,566.00,VWS V14.01,2013-03-08 18:18:00,
2013-03-08 10:23:00,52.2,47.8,29.95,North,350,3.0,8.0,85,0.00,,,0.03,336.00,VWS V14.01,2013-03-08 18:23:00,
2013-03-08 10:28:00,52.3,47.9,29.96,WNW,285,7.0,8.0,85,0.00,,,0.03,357.00,VWS V14.01,2013-03-08 18:28:00,
2013-03-08 10:33:00,52.3,47.6,29.96,NW,314,4.0,11.0,84,0.00,,,0.03,232.00,VWS V14.01,2013-03-08 18:33:00,
2013-03-08 10:38:00,52.2,47.5,29.96,WNW,301,3.0,11.0,84,0.00,,,0.03,288.00,VWS V14.01,2013-03-08 18:38:00,
2013-03-08 10:43:00,52.1,47.4,29.96,WSW,249,4.0,11.0,84,0.00,,,0.03,355.00,VWS V14.01,2013-03-08 18:43:00,
2013-03-08 10:48:00,52.2,47.5,29.96,WNW,291,7.0,11.0,84,0.00,,,0.03,446.00,VWS V14.01,2013-03-08 18:48:00,
2013-03-08 10:53:00,52.4,47.7,29.96,West,281,7.0,9.0,84,0.00,,,0.03,373.00,VWS V14.01,2013-03-08 18:53:00,
2013-03-08 10:59:00,52.5,47.5,29.96,WNW,288,6.0,9.0,83,0.00,,,0.03,250.00,VWS V14.01,2013-03-08 18:59:00,
2013-03-08 11:04:00,52.4,47.4,29.96,NNW,331,5.0,8.0,83,0.00,,,0.03,299.00,VWS V14.01,2013-03-08 19:04:00,
2013-03-08 11:09:00,52.3,47.3,29.96,West,276,3.0,8.0,83,0.00,,,0.03,422.00,VWS V14.01,2013-03-08 19:09:00,
2013-03-08 11:14:00,52.5,47.2,29.96,West,264,11.0,11.0,82,0.00,,,0.03,287.00,VWS V14.01,2013-03-08 19:14:00,
2013-03-08 11:19:00,52.4,47.1,29.96,NNW,344,1.0,12.0,82,0.00,,,0.03,311.00,VWS V14.01,2013-03-08 19:19:00,
2013-03-08 11:24:00,52.3,47.0,29.96,NNW,329,1.0,10.0,82,0.00,,,0.03,330.00,VWS V14.01,2013-03-08 19:24:00,
2013-03-08 11:29:00,52.6,47.6,29.96,West,273,7.0,10.0,83,0.00,,,0.03,821.00,VWS V14.01,2013-03-08 19:29:00,
2013-03-08 11:34:00,53.1,48.1,29.97,NW,306,5.0,12.0,83,0.00,,,0.03,309.00,VWS V14.01,2013-03-08 19:34:00,
2013-03-08 11:39:00,53.0,47.7,29.97,NNW,341,11.0,12.0,82,0.00,,,0.03,376.00,VWS V14.01,2013-03-08 19:39:00,
2013-03-08 11:44:00,52.9,47.6,29.96,West,265,2.0,7.0,82,0.00,,,0.03,383.00,VWS V14.01,2013-03-08 19:44:00,
2013-03-08 11:49:00,53.0,47.3,29.97,WNW,299,7.0,13.0,81,0.00,,,0.03,420.00,VWS V14.01,2013-03-08 19:49:00,
2013-03-08 11:54:00,52.8,47.1,29.97,WNW,290,3.0,13.0,81,0.00,,,0.03,420.00,VWS V14.01,2013-03-08 19:54:00,
2013-03-08 11:59:00,52.9,47.2,29.96,NW,320,5.0,13.0,81,0.00,,,0.03,287.00,VWS V14.01,2013-03-08 19:59:00,
2013-03-08 12:04:00,53.1,47.4,29.97,East,88,2.0,5.0,81,0.00,,,0.03,360.00,VWS V14.01,2013-03-08 20:04:00,
2013-03-08 12:09:00,53.6,47.9,29.97,NW,308,4.0,7.0,81,0.00,,,0.03,360.00,VWS V14.01,2013-03-08 20:09:00,
2013-03-08 12:14:00,53.3,47.3,29.97,WSW,239,4.0,13.0,80,0.00,,,0.03,441.00,VWS V14.01,2013-03-08 20:14:00,
2013-03-08 12:19:00,53.3,47.3,29.97,NNW,331,9.0,13.0,80,0.00,,,0.03,396.00,VWS V14.01,2013-03-08 20:19:00,
2013-03-08 12:24:00,53.2,47.2,29.97,West,268,8.0,11.0,80,0.00,,,0.03,780.00,VWS V14.01,2013-03-08 20:24:00,
2013-03-08 12:29:00,53.4,47.1,29.97,West,272,3.0,12.0,79,0.00,,,0.03,838.00,VWS V14.01,2013-03-08 20:29:00,
2013-03-08 12:34:00,53.7,47.3,29.97,NW,323,7.0,12.0,79,0.00,,,0.03,891.00,VWS V14.01,2013-03-08 20:34:00,
2013-03-08 12:39:00,53.4,47.1,29.97,West,263,5.0,15.0,79,0.00,,,0.03,824.00,VWS V14.01,2013-03-08 20:39:00,
2013-03-08 12:44:00,53.5,47.2,29.97,West,277,11.0,11.0,79,0.00,,,0.03,468.00,VWS V14.01,2013-03-08 20:44:00,
2013-03-08 12:49:00,53.5,47.2,29.97,West,272,5.0,12.0,79,0.00,,,0.03,916.00,VWS V14.01,2013-03-08 20:49:00,
2013-03-08 12:54:00,53.5,47.2,29.97,NNW,343,4.0,13.0,79,0.00,,,0.03,322.00,VWS V14.01,2013-03-08 20:54:00,
2013-03-08 12:59:00,53.8,47.1,29.97,WSW,243,8.0,13.0,78,0.00,,,0.03,775.00,VWS V14.01,2013-03-08 20:59:00,
2013-03-08 13:04:00,53.6,46.9,29.96,WNW,293,6.0,13.0,78,0.00,,,0.03,527.00,VWS V14.01,2013-03-08 21:04:00,
2013-03-08 13:09:00,53.7,47.0,29.96,NW,308,4.0,13.0,78,0.00,,,0.03,775.00,VWS V14.01,2013-03-08 21:09:00,
2013-03-08 13:14:00,53.6,46.6,29.96,WSW,243,5.0,13.0,77,0.00,,,0.03,775.00,VWS V14.01,2013-03-08 21:14:00,
2013-03-08 13:19:00,53.8,46.8,29.96,WNW,296,7.0,15.0,77,0.00,,,0.03,768.00,VWS V14.01,2013-03-08 21:19:00,
2013-03-08 13:24:00,54.1,46.7,29.97,WNW,301,4.0,11.0,76,0.00,,,0.03,786.00,VWS V14.01,2013-03-08 21:24:00,
2013-03-08 13:29:00,54.2,46.8,29.96,WNW,286,11.0,14.0,76,0.00,,,0.03,805.00,VWS V14.01,2013-03-08 21:29:00,
2013-03-08 13:34:00,54.4,47.3,29.96,West,281,4.0,7.0,77,0.00,,,0.03,798.00,VWS V14.01,2013-03-08 21:34:00,
2013-03-08 13:39:00,54.4,47.0,29.96,WNW,286,2.0,15.0,76,0.00,,,0.03,355.00,VWS V14.01,2013-03-08 21:39:00,
2013-03-08 13:44:00,54.2,46.8,29.96,WNW,286,8.0,12.0,76,0.00,,,0.03,543.00,VWS V14.01,2013-03-08 21:44:00,
2013-03-08 13:49:00,53.9,46.9,29.96,NNW,339,10.0,12.0,77,0.00,,,0.03,721.00,VWS V14.01,2013-03-08 21:49:00,
2013-03-08 13:54:00,53.8,46.8,29.96,WSW,243,12.0,13.0,77,0.00,,,0.03,418.00,VWS V14.01,2013-03-08 21:54:00,
2013-03-08 13:59:00,53.7,47.0,29.95,WSW,252,5.0,13.0,78,0.00,,,0.03,715.00,VWS V14.01,2013-03-08 21:59:00,
2013-03-08 14:04:00,53.6,46.2,29.95,West,266,4.0,15.0,76,0.00,,,0.03,700.00,VWS V14.01,2013-03-08 22:04:00,
2013-03-08 14:09:00,53.5,46.1,29.95,WNW,288,7.0,15.0,76,0.00,,,0.03,668.00,VWS V14.01,2013-03-08 22:09:00,
2013-03-08 14:14:00,53.5,46.5,29.96,SW,227,6.0,12.0,77,0.00,,,0.03,283.00,VWS V14.01,2013-03-08 22:14:00,
2013-03-08 14:19:00,53.5,46.5,29.96,WNW,298,5.0,12.0,77,0.00,,,0.03,721.00,VWS V14.01,2013-03-08 22:19:00,
2013-03-08 14:24:00,53.5,46.1,29.96,West,278,7.0,15.0,76,0.00,,,0.03,290.00,VWS V14.01,2013-03-08 22:24:00,
2013-03-08 14:29:00,53.1,46.4,29.97,West,271,7.0,15.0,78,0.00,,,0.03,248.00,VWS V14.01,2013-03-08 22:29:00,
2013-03-08 14:34:00,53.1,45.8,29.97,WNW,298,6.0,14.0,76,0.00,,,0.03,687.00,VWS V14.01,2013-03-08 22:34:00,
2013-03-08 14:39:00,52.8,45.8,29.97,NNW,334,3.0,14.0,77,0.00,,,0.03,204.00,VWS V14.01,2013-03-08 22:39:00,
2013-03-08 14:44:00,53.0,46.0,29.97,West,279,9.0,12.0,77,0.00,,,0.03,520.00,VWS V14.01,2013-03-08 22:44:00,
2013-03-08 14:49:00,53.1,45.8,29.98,West,273,7.0,15.0,76,0.00,,,0.03,617.00,VWS V14.01,2013-03-08 22:49:00,
2013-03-08 14:54:00,53.5,46.1,29.97,North,3,2.0,12.0,76,0.00,,,0.03,309.00,VWS V14.01,2013-03-08 22:54:00,
2013-03-08 14:59:00,53.5,46.1,29.98,West,276,11.0,12.0,76,0.00,,,0.03,278.00,VWS V14.01,2013-03-08 22:59:00,
2013-03-08 15:05:00,53.0,46.0,29.98,NW,310,4.0,13.0,77,0.00,,,0.03,225.00,VWS V14.01,2013-03-08 23:05:00,
2013-03-08 15:10:00,52.8,45.5,29.98,WNW,282,4.0,13.0,76,0.00,,,0.03,141.00,VWS V14.01,2013-03-08 23:10:00,
2013-03-08 15:15:00,52.8,45.8,29.98,West,275,10.0,13.0,77,0.00,,,0.03,220.00,VWS V14.01,2013-03-08 23:15:00,
2013-03-08 15:20:00,52.5,45.5,29.98,WNW,301,9.0,13.0,77,0.00,,,0.03,146.00,VWS V14.01,2013-03-08 23:20:00,
2013-03-08 15:25:00,52.2,45.2,29.98,West,262,6.0,15.0,77,0.00,,,0.03,199.00,VWS V14.01,2013-03-08 23:25:00,
2013-03-08 15:30:00,52.4,45.8,29.99,West,279,5.0,15.0,78,0.00,,,0.03,267.00,VWS V14.01,2013-03-08 23:30:00,
2013-03-08 15:35:00,52.4,45.4,29.99,West,281,4.0,14.0,77,0.00,,,0.03,253.00,VWS V14.01,2013-03-08 23:35:00,
2013-03-08 15:40:00,52.1,45.1,29.99,SSW,208,5.0,14.0,77,0.00,,,0.03,176.00,VWS V14.01,2013-03-08 23:40:00,
2013-03-08 15:45:00,52.1,45.1,29.99,West,281,6.0,12.0,77,0.00,,,0.03,142.00,VWS V14.01,2013-03-08 23:45:00,
2013-03-08 15:50:00,52.1,45.5,29.99,West,276,2.0,12.0,78,0.00,,,0.03,165.00,VWS V14.01,2013-03-08 23:50:00,
2013-03-08 15:55:00,52.0,45.4,30.00,NW,322,4.0,14.0,78,0.00,,,0.03,218.00,VWS V14.01,2013-03-08 23:55:00,
2013-03-08 16:00:00,52.2,44.9,30.00,WNW,283,6.0,14.0,76,0.00,,,0.03,132.00,VWS V14.01,2013-03-09 00:00:00,
2013-03-08 16:05:00,52.1,45.1,30.00,WNW,284,3.0,10.0,77,0.00,,,0.03,162.00,VWS V14.01,2013-03-09 00:05:00,
2013-03-08 16:10:00,51.9,44.9,30.00,WSW,247,7.0,12.0,77,0.00,,,0.03,172.00,VWS V14.01,2013-03-09 00:10:00,
2013-03-08 16:15:00,51.9,44.6,29.99,West,268,3.0,13.0,76,0.00,,,0.03,376.00,VWS V14.01,2013-03-09 00:15:00,
2013-03-08 16:20:00,52.2,44.9,29.99,WNW,293,3.0,13.0,76,0.00,,,0.03,158.00,VWS V14.01,2013-03-09 00:20:00,
2013-03-08 16:25:00,52.1,45.1,30.00,NNW,327,8.0,13.0,77,0.00,,,0.03,178.00,VWS V14.01,2013-03-09 00:25:00,
2013-03-08 16:30:00,51.9,44.9,30.00,WSW,256,8.0,8.0,77,0.00,,,0.03,163.00,VWS V14.01,2013-03-09 00:30:00,
2013-03-08 16:35:00,51.7,44.4,30.00,West,262,8.0,15.0,76,0.00,,,0.03,95.00,VWS V14.01,2013-03-09 00:35:00,
2013-03-08 16:40:00,51.6,44.6,30.00,West,275,5.0,15.0,77,0.00,,,0.03,121.00,VWS V14.01,2013-03-09 00:40:00,
2013-03-08 16:45:00,51.4,44.4,30.01,West,275,13.0,14.0,77,0.00,,,0.03,65.00,VWS V14.01,2013-03-09 00:45:00,
2013-03-08 16:50:00,51.3,44.0,30.01,West,272,4.0,6.0,76,0.00,,,0.03,65.00,VWS V14.01,2013-03-09 00:50:00,
2013-03-08 16:55:00,51.2,43.9,30.01,West,267,4.0,9.0,76,0.00,,,0.03,65.00,VWS V14.01,2013-03-09 00:55:00,
2013-03-08 17:00:00,51.1,43.8,30.01,WNW,295,4.0,6.0,76,0.00,,,0.03,51.00,VWS V14.01,2013-03-09 01:00:00,
2013-03-08 17:05:00,51.1,44.2,30.01,WNW,288,6.0,8.0,77,0.00,,,0.03,32.00,VWS V14.01,2013-03-09 01:05:00,
2013-03-08 17:10:00,51.1,44.5,30.01,WNW,291,5.0,5.0,78,0.00,,,0.03,35.00,VWS V14.01,2013-03-09 01:10:00,
2013-03-08 17:15:00,51.0,43.7,30.02,West,268,9.0,10.0,76,0.00,,,0.03,28.00,VWS V14.01,2013-03-09 01:15:00,
2013-03-08 17:20:00,51.0,44.0,30.02,SSW,205,4.0,5.0,77,0.00,,,0.03,18.00,VWS V14.01,2013-03-09 01:20:00,
2013-03-08 17:25:00,51.0,44.4,30.03,WNW,283,7.0,10.0,78,0.00,,,0.03,16.00,VWS V14.01,2013-03-09 01:25:00,
2013-03-08 17:30:00,51.0,44.7,30.03,WNW,290,4.0,6.0,79,0.00,,,0.03,18.00,VWS V14.01,2013-03-09 01:30:00,
2013-03-08 17:35:00,50.9,44.3,30.03,WNW,301,4.0,8.0,78,0.00,,,0.03,11.00,VWS V14.01,2013-03-09 01:35:00,
2013-03-08 17:40:00,50.8,44.2,30.03,WSW,245,7.0,7.0,78,0.00,,,0.03,12.00,VWS V14.01,2013-03-09 01:40:00,
2013-03-08 17:45:00,50.8,44.2,30.03,West,281,7.0,11.0,78,0.00,,,0.03,7.00,VWS V14.01,2013-03-09 01:45:00,
2013-03-08 17:50:00,50.8,44.2,30.04,WNW,291,2.0,4.0,78,0.00,,,0.03,5.00,VWS V14.01,2013-03-09 01:50:00,
2013-03-08 17:55:00,50.7,44.1,30.04,WNW,295,2.0,7.0,78,0.00,,,0.03,0.00,VWS V14.01,2013-03-09 01:55:00,
2013-03-08 18:00:00,50.7,44.1,30.05,WSW,244,3.0,7.0,78,0.00,,,0.03,0.00,VWS V14.01,2013-03-09 02:00:00,
2013-03-08 18:05:00,50.7,44.1,30.05,WSW,247,7.0,8.0,78,0.00,,,0.03,0.00,VWS V14.01,2013-03-09 02:05:00,
2013-03-08 18:11:00,50.8,44.5,30.05,West,272,5.0,5.0,79,0.00,,,0.03,0.00,VWS V14.01,2013-03-09 02:11:00,
2013-03-08 18:16:00,50.7,44.4,30.05,West,272,5.0,9.0,79,0.00,,,0.03,0.00,VWS V14.01,2013-03-09 02:16:00,
2013-03-08 18:21:00,50.7,44.4,30.06,WSW,247,5.0,5.0,79,0.00,,,0.03,0.00,VWS V14.01,2013-03-09 02:21:00,
2013-03-08 18:26:00,50.7,44.1,30.06,NW,304,5.0,7.0,78,0.00,,,0.03,0.00,VWS V14.01,2013-03-09 02:26:00,
2013-03-08 18:31:00,50.6,44.0,30.06,WNW,299,5.0,8.0,78,0.00,,,0.03,0.00,VWS V14.01,2013-03-09 02:31:00,
2013-03-08 18:36:00,50.7,43.8,30.06,NW,318,1.0,8.0,77,0.00,,,0.03,0.00,VWS V14.01,2013-03-09 02:36:00,
2013-03-08 18:41:00,50.7,43.8,30.06,WNW,299,3.0,7.0,77,0.00,,,0.03,0.00,VWS V14.01,2013-03-09 02:41:00,
2013-03-08 18:46:00,50.7,43.8,30.07,West,266,5.0,10.0,77,0.00,,,0.03,0.00,VWS V14.01,2013-03-09 02:46:00,
2013-03-08 18:51:00,50.7,44.1,30.07,WNW,285,5.0,6.0,78,0.00,,,0.03,0.00,VWS V14.01,2013-03-09 02:51:00,
2013-03-08 18:56:00,50.7,44.1,30.07,WNW,294,4.0,8.0,78,0.00,,,0.03,0.00,VWS V14.01,2013-03-09 02:56:00,
2013-03-08 19:01:00,50.7,44.1,30.07,West,268,3.0,9.0,78,0.00,,,0.03,0.00,VWS V14.01,2013-03-09 03:01:00,
2013-03-08 19:06:00,50.7,44.4,30.08,NW,320,1.0,9.0,79,0.00,,,0.03,0.00,VWS V14.01,2013-03-09 03:06:00,
2013-03-08 19:11:00,50.7,44.4,30.08,North,356,2.0,7.0,79,0.00,,,0.03,0.00,VWS V14.01,2013-03-09 03:11:00,
2013-03-08 19:16:00,50.7,44.8,30.08,West,281,8.0,13.0,80,0.00,,,0.03,0.00,VWS V14.01,2013-03-09 03:16:00,
2013-03-08 19:21:00,50.6,44.7,30.08,NW,306,5.0,5.0,80,0.00,,,0.03,0.00,VWS V14.01,2013-03-09 03:21:00,
2013-03-08 19:26:00,50.6,44.3,30.09,NNW,328,3.0,8.0,79,0.00,,,0.03,0.00,VWS V14.01,2013-03-09 03:26:00,
2013-03-08 19:31:00,50.6,44.0,30.09,WNW,302,3.0,10.0,78,0.00,,,0.03,0.00,VWS V14.01,2013-03-09 03:31:00,
2013-03-08 19:36:00,50.6,43.7,30.09,West,274,2.0,10.0,77,0.00,,,0.03,0.00,VWS V14.01,2013-03-09 03:36:00,
2013-03-08 19:41:00,50.5,43.2,30.09,WSW,237,4.0,6.0,76,0.00,,,0.03,0.00,VWS V14.01,2013-03-09 03:41:00,
2013-03-08 19:46:00,50.6,43.7,30.09,WNW,289,6.0,8.0,77,0.00,,,0.03,0.00,VWS V14.01,2013-03-09 03:46:00,
2013-03-08 19:51:00,50.6,44.0,30.09,NW,312,0.0,5.0,78,0.00,,,0.03,0.00,VWS V14.01,2013-03-09 03:51:00,
2013-03-08 19:56:00,50.6,44.0,30.09,West,278,4.0,7.0,78,0.00,,,0.03,0.00,VWS V14.01,2013-03-09 03:56:00,
2013-03-08 20:01:00,50.6,43.7,30.09,NW,314,4.0,10.0,77,0.00,,,0.03,0.00,VWS V14.01,2013-03-09 04:01:00,
2013-03-08 20:06:00,50.6,43.0,30.09,West,259,2.0,10.0,75,0.00,,,0.03,0.00,VWS V14.01,2013-03-09 04:06:00,
2013-03-08 20:11:00,50.6,43.7,30.10,NNW,343,4.0,8.0,77,0.00,,,0.03,0.00,VWS V14.01,2013-03-09 04:11:00,
2013-03-08 20:16:00,50.7,43.8,30.10,WNW,294,2.0,9.0,77,0.00,,,0.03,0.00,VWS V14.01,2013-03-09 04:16:00,
2013-03-08 20:21:00,50.7,44.1,30.10,NNW,328,2.0,5.0,78,0.00,,,0.03,0.00,VWS V14.01,2013-03-09 04:21:00,
2013-03-08 20:26:00,50.7,44.1,30.10,WNW,286,3.0,7.0,78,0.00,,,0.03,0.00,VWS V14.01,2013-03-09 04:26:00,
2013-03-08 20:31:00,50.7,44.1,30.10,NNW,330,7.0,10.0,78,0.00,,,0.03,0.00,VWS V14.01,2013-03-09 04:31:00,
2013-03-08 20:36:00,50.7,44.4,30.11,NW,322,0.0,10.0,79,0.00,,,0.03,0.00,VWS V14.01,2013-03-09 04:36:00,
2013-03-08 20:41:00,50.7,44.4,30.11,WNW,293,4.0,6.0,79,0.00,,,0.03,0.00,VWS V14.01,2013-03-09 04:41:00,
2013-03-08 20:46:00,50.7,44.1,30.11,WNW,289,5.0,10.0,78,0.00,,,0.03,0.00,VWS V14.01,2013-03-09 04:46:00,
2013-03-08 20:51:00,50.6,44.0,30.11,NW,314,4.0,12.0,78,0.00,,,0.03,0.00,VWS V14.01,2013-03-09 04:51:00,
2013-03-08 20:56:00,50.6,44.0,30.11,West,278,4.0,12.0,78,0.00,,,0.03,0.00,VWS V14.01,2013-03-09 04:56:00,
2013-03-08 21:00:00,50.6,44.3,30.11,WNW,291,7.0,12.0,79,0.00,,,0.03,0.00,VWS V14.01,2013-03-09 05:00:00,
2013-03-08 21:04:00,50.6,44.3,30.11,WNW,297,3.0,8.0,79,0.00,,,0.03,0.00,VWS V14.01,2013-03-09 05:04:00,
2013-03-08 21:09:00,50.6,44.3,30.11,WNW,294,7.0,8.0,79,0.00,,,0.03,0.00,VWS V14.01,2013-03-09 05:09:00,
2013-03-08 21:10:00,50.6,44.3,30.11,NW,315,4.0,4.0,79,0.00,,,0.03,0.00,VWS V14.01,2013-03-09 05:10:00,
2013-03-08 21:15:00,50.6,44.3,30.12,WSW,256,2.0,7.0,79,0.00,,,0.03,0.00,VWS V14.01,2013-03-09 05:15:00,
2013-03-08 21:20:00,50.6,44.3,30.12,WNW,299,3.0,4.0,79,0.00,,,0.03,0.00,VWS V14.01,2013-03-09 05:20:00,
2013-03-08 21:25:00,50.6,44.3,30.12,NW,316,3.0,8.0,79,0.00,,,0.03,0.00,VWS V14.01,2013-03-09 05:25:00,
2013-03-08 21:30:00,50.6,44.3,30.12,WNW,301,3.0,5.0,79,0.00,,,0.03,0.00,VWS V14.01,2013-03-09 05:30:00,
2013-03-08 21:35:00,50.6,44.0,30.12,WNW,284,3.0,8.0,78,0.00,,,0.03,0.00,VWS V14.01,2013-03-09 05:35:00,
2013-03-08 21:40:00,50.5,43.9,30.12,West,275,4.0,8.0,78,0.00,,,0.03,0.00,VWS V14.01,2013-03-09 05:40:00,
2013-03-08 21:45:00,50.5,44.2,30.12,WNW,294,3.0,10.0,79,0.00,,,0.03,0.00,VWS V14.01,2013-03-09 05:45:00,
2013-03-08 21:50:00,50.5,43.9,30.13,West,274,3.0,5.0,78,0.00,,,0.03,0.00,VWS V14.01,2013-03-09 05:50:00,
2013-03-08 21:55:00,50.5,43.9,30.13,West,281,3.0,13.0,78,0.00,,,0.03,0.00,VWS V14.01,2013-03-09 05:55:00,
2013-03-08 22:00:00,50.5,43.9,30.13,WNW,287,2.0,6.0,78,0.00,,,0.03,0.00,VWS V14.01,2013-03-09 06:00:00,
2013-03-08 22:05:00,50.5,43.9,30.13,West,259,6.0,11.0,78,0.00,,,0.03,0.00,VWS V14.01,2013-03-09 06:05:00,
2013-03-08 22:10:00,50.5,43.9,30.13,WNW,295,5.0,6.0,78,0.00,,,0.03,0.00,VWS V14.01,2013-03-09 06:10:00,
2013-03-08 22:15:00,50.5,44.2,30.13,WNW,287,5.0,8.0,79,0.00,,,0.03,0.00,VWS V14.01,2013-03-09 06:15:00,
2013-03-08 22:20:00,50.5,44.2,30.13,NW,313,5.0,6.0,79,0.00,,,0.03,0.00,VWS V14.01,2013-03-09 06:20:00,
2013-03-08 22:25:00,50.5,44.2,30.13,NW,313,4.0,8.0,79,0.00,,,0.03,0.00,VWS V14.01,2013-03-09 06:25:00,
2013-03-08 22:30:00,50.4,44.1,30.13,West,279,9.0,9.0,79,0.00,,,0.03,0.00,VWS V14.01,2013-03-09 06:30:00,
2013-03-08 22:35:00,50.4,43.8,30.13,WSW,248,2.0,10.0,78,0.00,,,0.03,0.00,VWS V14.01,2013-03-09 06:35:00,
2013-03-08 22:40:00,50.3,43.7,30.13,WNW,291,1.0,5.0,78,0.00,,,0.03,0.00,VWS V14.01,2013-03-09 06:40:00,
2013-03-08 22:45:00,50.3,43.7,30.13,NW,324,4.0,9.0,78,0.00,,,0.03,0.00,VWS V14.01,2013-03-09 06:45:00,
2013-03-08 22:50:00,50.3,43.7,30.13,West,267,7.0,7.0,78,0.00,,,0.03,0.00,VWS V14.01,2013-03-09 06:50:00,
2013-03-08 22:55:00,50.3,43.7,30.13,NW,321,5.0,8.0,78,0.00,,,0.03,0.00,VWS V14.01,2013-03-09 06:55:00,
2013-03-08 23:00:00,50.3,43.4,30.14,WNW,288,2.0,6.0,77,0.00,,,0.03,0.00,VWS V14.01,2013-03-09 07:00:00,
2013-03-08 23:06:00,50.2,42.9,30.13,NNW,335,1.0,8.0,76,0.00,,,0.03,0.00,VWS V14.01,2013-03-09 07:06:00,
2013-03-08 23:11:00,50.3,43.4,30.14,NW,305,6.0,6.0,77,0.00,,,0.03,0.00,VWS V14.01,2013-03-09 07:11:00,
2013-03-08 23:16:00,50.3,43.7,30.14,WNW,292,6.0,8.0,78,0.00,,,0.03,0.00,VWS V14.01,2013-03-09 07:16:00,
2013-03-08 23:21:00,50.3,43.7,30.14,NW,311,2.0,6.0,78,0.00,,,0.03,0.00,VWS V14.01,2013-03-09 07:21:00,
2013-03-08 23:26:00,50.3,43.7,30.14,NE,42,2.0,7.0,78,0.00,,,0.03,0.00,VWS V14.01,2013-03-09 07:26:00,
2013-03-08 23:31:00,50.3,43.7,30.14,WNW,294,8.0,8.0,78,0.00,,,0.03,0.00,VWS V14.01,2013-03-09 07:31:00,
2013-03-08 23:36:00,50.3,43.7,30.14,NW,304,2.0,8.0,78,0.00,,,0.03,0.00,VWS V14.01,2013-03-09 07:36:00,
2013-03-08 23:41:00,50.3,44.0,30.14,West,268,1.0,3.0,79,0.00,,,0.03,0.00,VWS V14.01,2013-03-09 07:41:00,
2013-03-08 23:46:00,50.2,43.6,30.14,WNW,284,3.0,10.0,78,0.00,,,0.03,0.00,VWS V14.01,2013-03-09 07:46:00,
2013-03-08 23:51:00,50.3,43.7,30.14,NNW,332,2.0,7.0,78,0.00,,,0.03,0.00,VWS V14.01,2013-03-09 07:51:00,
2013-03-08 23:56:00,50.3,43.7,30.14,West,272,4.0,8.0,78,0.00,,,0.03,0.00,VWS V14.01,2013-03-09 07:56:00,